Sardinia Regina — IBMS — position and weather

sailwx.info

Track history (hours):
 
Tides and Currents Weather Stations Pressure Air Temp Water Temp Dewpoint Dewpoint Depression Visibility Wind Speed Wind Dir Waves Ship Positions

Sardinia Regina

Last reported at 2016-Sep-27 00:33 UTC. Time now 2016-Sep-27 03:41 UTC.
Position N 43°29' E 009°04'.

Length 146 m; draft 5 m.

Type: Passenger vessel. MMSI: 247079000.

Date/timePositionNaut miles runAvg speedWind from/ knotsBaromVisibWave heightAir tempDewpointWater temp
2016-Sep-27 00:33N 43°29' E 009°04'39 9.8
2016-Sep-26 20:33N 44°03' E 008°38'9 9.3
2016-Sep-26 19:33N 44°11' E 008°32'5 1.2
2016-Sep-26 15:33N 44°16' E 008°30'3517.7
2016-Sep-26 13:33N 43°46' E 008°56'3618.1
2016-Sep-26 11:33N 43°14' E 009°20'5 0.5
2016-Sep-26 01:33N 43°17' E 009°14'1514.7
2016-Sep-26 00:33N 43°30' E 009°03'4414.8
2016-Sep-25 21:33N 44°09' E 008°34'17 4.3
2016-Sep-25 17:33N 43°52' E 008°36'1616.0
2016-Sep-25 16:34N 43°36' E 008°41'1717.2
2016-Sep-25 15:33N 43°20' E 008°46'54 6.5
2016-Sep-25 07:11N 43°30' E 007°33'15 5.6
2016-Sep-25 04:33N 43°40' E 007°19'6616.4
2016-Sep-25 00:30N 43°17' E 008°44'59 1.9
2016-Sep-23 17:33N 43°37' E 007°28'9 8.8
2016-Sep-23 16:33N 43°42' E 007°17'0 0.0
2016-Sep-23 15:32N 43°42' E 007°17'0 0.0
2016-Sep-23 13:26N 43°42' E 007°17'0 0.0
2016-Sep-23 06:33N 43°42' E 007°17'5112.8
2016-Sep-23 02:33N 43°22' E 008°22'2016.9
2016-Sep-23 01:22N 43°15' E 008°48'1416.8
2016-Sep-23 00:31N 43°10' E 009°07'19 0.7
2016-Sep-21 23:11N 43°01' E 009°29'1217.6
2016-Sep-21 22:30N 43°07' E 009°14'9215.4
2016-Sep-21 16:33N 43°42' E 007°17'0 0.0
2016-Sep-21 09:33N 43°42' E 007°17'0 0.0
2016-Sep-21 08:33N 43°42' E 007°17'0 0.0
2016-Sep-21 05:33N 43°42' E 007°17'111 7.4
2016-Sep-20 14:33N 43°06' E 009°41'1616.1
2016-Sep-20 13:33N 43°18' E 009°56'21 7.2
2016-Sep-20 10:33N 43°32' E 010°17'3215.8
2016-Sep-20 08:33N 43°10' E 009°47'15 2.4
2016-Sep-20 02:15N 43°03' E 009°28'2810.4
2016-Sep-19 23:34N 43°27' E 009°09'4912.4
2016-Sep-19 19:34N 44°10' E 008°34'8 7.8
2016-Sep-19 18:34N 44°16' E 008°27'0 0.0
2016-Sep-19 16:34N 44°16' E 008°27'19 9.6
2016-Sep-19 14:33N 44°01' E 008°45'1817.9
2016-Sep-19 13:33N 43°46' E 008°58'1818.2
2016-Sep-19 12:33N 43°30' E 009°10'1818.0
2016-Sep-19 11:33N 43°14' E 009°21'3 0.3
2016-Sep-19 02:05N 43°15' E 009°17'2314.8
2016-Sep-19 00:33N 43°35' E 009°01'45 9.0
2016-Sep-18 19:33N 44°14' E 008°32'7318.3
2016-Sep-18 15:33N 43°11' E 009°22'3 0.5
2016-Sep-18 10:12N 43°12' E 009°25'1116.9
2016-Sep-18 09:33N 43°22' E 009°20'49 7.1
2016-Sep-18 02:33N 44°04' E 008°43'1514.7
2016-Sep-18 01:33N 43°51' E 008°55'1515.3
2016-Sep-18 00:33N 43°38' E 009°06'3316.4
2016-Sep-17 22:33N 43°09' E 009°25'72 8.0
2016-Sep-17 13:33N 44°10' E 008°33'7 7.5
2016-Sep-17 12:33N 44°16' E 008°27'2210.9
2016-Sep-17 10:34N 44°00' E 008°48'1818.4
2016-Sep-17 09:34N 43°44' E 008°60'1818.3
2016-Sep-17 08:34N 43°28' E 009°12'1717.4
2016-Sep-17 07:33N 43°12' E 009°23'18 2.6
2016-Sep-17 00:34N 43°27' E 009°09'  
Track history (hours):
 
Tides and Currents Weather Stations Pressure Air Temp Water Temp Dewpoint Dewpoint Depression Visibility Wind Speed Wind Dir Waves Ship Positions

Sardinia Regina

Last reported at 2016-Sep-27 00:33 UTC. Time now 2016-Sep-27 03:41 UTC.
Position N 43°29' E 009°04'.

Length 146 m; draft 5 m.

Type: Passenger vessel. MMSI: 247079000.

Date/timePositionNaut miles runAvg speedWind from/ knotsBaromVisibWave heightAir tempDewpointWater temp
2016-Sep-27 00:33N 43°29' E 009°04'39 9.8
2016-Sep-26 20:33N 44°03' E 008°38'9 9.3
2016-Sep-26 19:33N 44°11' E 008°32'5 1.2
2016-Sep-26 15:33N 44°16' E 008°30'3517.7
2016-Sep-26 13:33N 43°46' E 008°56'3618.1
2016-Sep-26 11:33N 43°14' E 009°20'5 0.5
2016-Sep-26 01:33N 43°17' E 009°14'1514.7
2016-Sep-26 00:33N 43°30' E 009°03'4414.8
2016-Sep-25 21:33N 44°09' E 008°34'17 4.3
2016-Sep-25 17:33N 43°52' E 008°36'1616.0
2016-Sep-25 16:34N 43°36' E 008°41'1717.2
2016-Sep-25 15:33N 43°20' E 008°46'54 6.5
2016-Sep-25 07:11N 43°30' E 007°33'15 5.6
2016-Sep-25 04:33N 43°40' E 007°19'6616.4
2016-Sep-25 00:30N 43°17' E 008°44'59 1.9
2016-Sep-23 17:33N 43°37' E 007°28'9 8.8
2016-Sep-23 16:33N 43°42' E 007°17'0 0.0
2016-Sep-23 15:32N 43°42' E 007°17'0 0.0
2016-Sep-23 13:26N 43°42' E 007°17'0 0.0
2016-Sep-23 06:33N 43°42' E 007°17'5112.8
2016-Sep-23 02:33N 43°22' E 008°22'2016.9
2016-Sep-23 01:22N 43°15' E 008°48'1416.8
2016-Sep-23 00:31N 43°10' E 009°07'19 0.7
2016-Sep-21 23:11N 43°01' E 009°29'1217.6
2016-Sep-21 22:30N 43°07' E 009°14'9215.4
2016-Sep-21 16:33N 43°42' E 007°17'0 0.0
2016-Sep-21 09:33N 43°42' E 007°17'0 0.0
2016-Sep-21 08:33N 43°42' E 007°17'0 0.0
2016-Sep-21 05:33N 43°42' E 007°17'111 7.4
2016-Sep-20 14:33N 43°06' E 009°41'1616.1
2016-Sep-20 13:33N 43°18' E 009°56'21 7.2
2016-Sep-20 10:33N 43°32' E 010°17'3215.8
2016-Sep-20 08:33N 43°10' E 009°47'15 2.4
2016-Sep-20 02:15N 43°03' E 009°28'2810.4
2016-Sep-19 23:34N 43°27' E 009°09'4912.4
2016-Sep-19 19:34N 44°10' E 008°34'8 7.8
2016-Sep-19 18:34N 44°16' E 008°27'0 0.0
2016-Sep-19 16:34N 44°16' E 008°27'19 9.6
2016-Sep-19 14:33N 44°01' E 008°45'1817.9
2016-Sep-19 13:33N 43°46' E 008°58'1818.2
2016-Sep-19 12:33N 43°30' E 009°10'1818.0
2016-Sep-19 11:33N 43°14' E 009°21'3 0.3
2016-Sep-19 02:05N 43°15' E 009°17'2314.8
2016-Sep-19 00:33N 43°35' E 009°01'45 9.0
2016-Sep-18 19:33N 44°14' E 008°32'7318.3
2016-Sep-18 15:33N 43°11' E 009°22'3 0.5
2016-Sep-18 10:12N 43°12' E 009°25'1116.9
2016-Sep-18 09:33N 43°22' E 009°20'49 7.1
2016-Sep-18 02:33N 44°04' E 008°43'1514.7
2016-Sep-18 01:33N 43°51' E 008°55'1515.3
2016-Sep-18 00:33N 43°38' E 009°06'3316.4
2016-Sep-17 22:33N 43°09' E 009°25'72 8.0
2016-Sep-17 13:33N 44°10' E 008°33'7 7.5
2016-Sep-17 12:33N 44°16' E 008°27'2210.9
2016-Sep-17 10:34N 44°00' E 008°48'1818.4
2016-Sep-17 09:34N 43°44' E 008°60'1818.3
2016-Sep-17 08:34N 43°28' E 009°12'1717.4
2016-Sep-17 07:33N 43°12' E 009°23'18 2.6
2016-Sep-17 00:34N 43°27' E 009°09'  

Dump ship's entire track history